EKCHEDDH

Guest
Details From EKCH - Kastrup
To EDDH - Hamburg
Flight Number -
Tags decoded
Created
Modified
Stats Distance 152 nm / 281 km
Max Altitude 0 ft / 0 m
Waypoints 4
Social Downloads 2
Likes 0
Share VATSIM

Download

Looking for another format? Having issues loading an existing format? Contact us
Advertisement - Login to hide

Notes

Requested: EKCH N0370F230 NEXEN T503 MIC N850 BOGMU EDDH Unmatched points: N0370F230 NEXEN T503 N850

Route

EKCH MIC BOGMU EDDH

ID Type Via Altitude Latitude Longitude Leg Dist Tot Dist Heading (true) Name
O EKCH APT - 0 ft / 0 m 55.61291˚ 12.64096˚ - 0 nm - Kastrup
MIC VOR - 0 ft / 0 m 54.30546˚ 11.00519˚ 96 nm 96 nm 216° / 215° MICHAELSDORF VOR
BOGMU FIX - 0 ft / 0 m 53.97417˚ 10.28667˚ 32 nm 128 nm 232° / 232° -
O EDDH APT - 0 ft / 0 m 53.63367˚ 9.98524˚ 23 nm 151 nm 208° / 207° Hamburg

Altitude Profile

Advertisement - Login to hide

EKCH

Details ICAO EKCH (CPH)
Name Kastrup
Region Denmark / Faroe Islands
Timezone Europe/Copenhagen (UTC+2.0)
Stats Elevation 17 ft / 5 m (AMSL)
Location 55.612915° 12.640961°
Runways 3
Magnetic Variation 3.787° E

METAR

EKCH 200950Z 16004KT 120V200 CAVOK 17/08 Q1029 NOSIG

Decode

TAF

TAF EKCH 192302Z 2000/2024 18005KT CAVOK= TAF EKBI 192302Z 2000/2024 VRB03KT CAVOK PROB40 2000/2005 4000 MIFG BR BECMG 2006/2008 16010KT

Decode

Departure Runways

ID Width Length Bearing (true) Bearing (mag) Surface Threshold Offset Overrun Length
04L 148 ft / 45 m 11,848 ft / 3,611 m 41.15° 37.36° Asphalt 0 ft / 0 m 0 ft / 0 m
04R 148 ft / 45 m 10,814 ft / 3,296 m 41.15° 37.36° Asphalt 0 ft / 0 m 0 ft / 0 m
12 148 ft / 45 m 10,047 ft / 3,063 m 123.21° 119.42° Asphalt 2,313 ft / 705 m 0 ft / 0 m
22L 148 ft / 45 m 10,814 ft / 3,296 m 221.17° 217.38° Asphalt 0 ft / 0 m 0 ft / 0 m
22R 148 ft / 45 m 11,848 ft / 3,611 m 221.18° 217.39° Asphalt 2,018 ft / 615 m 0 ft / 0 m
30 148 ft / 45 m 10,047 ft / 3,063 m 303.25° 299.46° Asphalt 886 ft / 270 m 0 ft / 0 m

EDDH

Details ICAO EDDH (HAM)
Name Hamburg
Region Germany - Civil
Timezone Europe/Berlin (UTC+2.0)
Stats Elevation 53 ft / 16 m (AMSL)
Location 53.633665° 9.985235°
Runways 2
Magnetic Variation 2.846° E

METAR

EDDH 200950Z 10012KT 070V140 CAVOK 20/01 Q1026 NOSIG

Decode

TAF

TAF AMD EDDH 200807Z 2008/2112 08012KT CAVOK BECMG 2017/2019 08006KT BECMG 2108/2110 11011KT TEMPO 2110/2112 11015G25KT

Decode

Destination Runways

ID Width Length Bearing (true) Bearing (mag) Surface Threshold Offset Overrun Length
05 151 ft / 46 m 10,647 ft / 3,245 m 50.18° 47.33° Asphalt 978 ft / 298 m 194 ft / 59 m
15 151 ft / 46 m 12,013 ft / 3,662 m 152.89° 150.04° Asphalt 0 ft / 0 m 194 ft / 59 m
23 151 ft / 46 m 10,647 ft / 3,245 m 230.22° 227.37° Asphalt 509 ft / 155 m 240 ft / 73 m
33 151 ft / 46 m 12,013 ft / 3,662 m 332.91° 330.06° Asphalt 1,463 ft / 446 m 164 ft / 50 m

Approach Navaids

Runway Type Ident Frequency Range Bearing (true) Bearing (mag) Slope Elevation
05 Localiser IHHE 110.50 MHz 18 nm / 33 km 50.19° 47.35° - 45 ft / 14 m (AMSL)
05 Glidescope IHHE 110.50 MHz 10 nm / 19 km 50.20° 47.35° 3.00° 32 ft / 10 m (AMSL)
15 Localiser IHHS 111.35 MHz 18 nm / 33 km 152.89° 150.04° - 38 ft / 12 m (AMSL)
15 Glidescope IHHS 111.35 MHz 10 nm / 19 km 152.90° 150.05° 3.00° 53 ft / 16 m (AMSL)
23 Localiser IHHW 111.50 MHz 18 nm / 33 km 230.21° 227.36° - 36 ft / 11 m (AMSL)
23 Glidescope IHHW 111.50 MHz 10 nm / 19 km 230.20° 227.35° 3.00° 43 ft / 13 m (AMSL)
33 Localiser IHHN 109.90 MHz 18 nm / 33 km 332.88° 330.04° - 53 ft / 16 m (AMSL)

Popular Alternatives